sensor_id;sensor_type;location;lat;lon;timestamp;pressure;altitude;pressure_sealevel;temperature;humidity
9822;BME280;4950;46.042;14.472;2023-01-08T00:00:55;98156.97;;;8.16;85.93
9822;BME280;4950;46.042;14.472;2023-01-08T00:03:22;98163.63;;;8.19;85.40
9822;BME280;4950;46.042;14.472;2023-01-08T00:05:49;98156.81;;;8.18;85.63
9822;BME280;4950;46.042;14.472;2023-01-08T00:08:16;98153.72;;;8.14;85.75
9822;BME280;4950;46.042;14.472;2023-01-08T00:10:42;98154.56;;;8.15;86.23
9822;BME280;4950;46.042;14.472;2023-01-08T00:13:10;98157.94;;;8.15;85.95
9822;BME280;4950;46.042;14.472;2023-01-08T00:15:37;98154.69;;;8.13;85.86
9822;BME280;4950;46.042;14.472;2023-01-08T00:18:04;98157.28;;;8.13;85.80
9822;BME280;4950;46.042;14.472;2023-01-08T00:20:30;98152.91;;;8.14;85.24
9822;BME280;4950;46.042;14.472;2023-01-08T00:22:57;98147.59;;;8.15;84.83
9822;BME280;4950;46.042;14.472;2023-01-08T00:25:23;98144.88;;;8.17;85.12
9822;BME280;4950;46.042;14.472;2023-01-08T00:27:50;98151.97;;;8.15;85.21
9822;BME280;4950;46.042;14.472;2023-01-08T00:30:18;98149.22;;;8.16;85.63
9822;BME280;4950;46.042;14.472;2023-01-08T00:32:44;98142.44;;;8.15;85.40
9822;BME280;4950;46.042;14.472;2023-01-08T00:35:11;98145.97;;;8.14;85.50
9822;BME280;4950;46.042;14.472;2023-01-08T00:37:38;98145.16;;;8.14;84.89
9822;BME280;4950;46.042;14.472;2023-01-08T00:40:06;98148.41;;;8.16;84.94
9822;BME280;4950;46.042;14.472;2023-01-08T00:42:32;98144.03;;;8.16;85.08
9822;BME280;4950;46.042;14.472;2023-01-08T00:44:59;98144.03;;;8.16;85.07
9822;BME280;4950;46.042;14.472;2023-01-08T00:47:27;98147.47;;;8.17;84.81
9822;BME280;4950;46.042;14.472;2023-01-08T00:49:53;98149.88;;;8.18;84.93
9822;BME280;4950;46.042;14.472;2023-01-08T00:52:20;98152.16;;;8.21;84.83
9822;BME280;4950;46.042;14.472;2023-01-08T00:54:46;98147.78;;;8.22;84.32
9822;BME280;4950;46.042;14.472;2023-01-08T00:57:13;98145.06;;;8.23;83.98
9822;BME280;4950;46.042;14.472;2023-01-08T00:59:40;98150.25;;;8.23;84.26
9822;BME280;4950;46.042;14.472;2023-01-08T01:02:06;98155.41;;;8.23;83.94
9822;BME280;4950;46.042;14.472;2023-01-08T01:04:34;98149.28;;;8.24;84.67
9822;BME280;4950;46.042;14.472;2023-01-08T01:07:01;98160.28;;;8.26;84.48
9822;BME280;4950;46.042;14.472;2023-01-08T01:09:28;98155.13;;;8.26;84.48
9822;BME280;4950;46.042;14.472;2023-01-08T01:11:54;98157.84;;;8.25;84.40
9822;BME280;4950;46.042;14.472;2023-01-08T01:14:22;98157.34;;;8.21;85.48
9822;BME280;4950;46.042;14.472;2023-01-08T01:16:48;98158.97;;;8.22;85.01
9822;BME280;4950;46.042;14.472;2023-01-08T01:19:16;98155.88;;;8.19;85.85
9822;BME280;4950;46.042;14.472;2023-01-08T01:21:44;98163.63;;;8.19;85.37
9822;BME280;4950;46.042;14.472;2023-01-08T01:24:11;98161.19;;;8.17;86.03
9822;BME280;4950;46.042;14.472;2023-01-08T01:26:38;98164.44;;;8.19;86.01
9822;BME280;4950;46.042;14.472;2023-01-08T01:29:05;98171.38;;;8.19;85.66
9822;BME280;4950;46.042;14.472;2023-01-08T01:31:32;98173.16;;;8.18;85.69
9822;BME280;4950;46.042;14.472;2023-01-08T01:33:58;98167.16;;;8.18;85.93
9822;BME280;4950;46.042;14.472;2023-01-08T01:36:25;98167.97;;;8.18;86.00
9822;BME280;4950;46.042;14.472;2023-01-08T01:38:55;98171.38;;;8.19;85.95
9822;BME280;4950;46.042;14.472;2023-01-08T01:41:25;98178.03;;;8.21;85.90
9822;BME280;4950;46.042;14.472;2023-01-08T01:43:52;98174.63;;;8.21;85.08
9822;BME280;4950;46.042;14.472;2023-01-08T01:46:25;98166.38;;;8.17;85.88
9822;BME280;4950;46.042;14.472;2023-01-08T01:48:55;98167.69;;;8.21;85.88
9822;BME280;4950;46.042;14.472;2023-01-08T01:51:30;98163.78;;;8.17;85.44
9822;BME280;4950;46.042;14.472;2023-01-08T01:53:59;98154.38;;;8.16;85.64
9822;BME280;4950;46.042;14.472;2023-01-08T01:56:28;98155.22;;;8.17;85.57
9822;BME280;4950;46.042;14.472;2023-01-08T01:58:55;98159.72;;;8.15;85.52
9822;BME280;4950;46.042;14.472;2023-01-08T02:01:23;98153.56;;;8.16;85.25
9822;BME280;4950;46.042;14.472;2023-01-08T02:03:50;98153.44;;;8.17;85.76
9822;BME280;4950;46.042;14.472;2023-01-08T02:06:23;98157.16;;;8.15;85.13
9822;BME280;4950;46.042;14.472;2023-01-08T02:09:00;98163.13;;;8.15;84.96
9822;BME280;4950;46.042;14.472;2023-01-08T02:11:35;98151.78;;;8.16;85.07
9822;BME280;4950;46.042;14.472;2023-01-08T02:14:07;98156.16;;;8.16;84.63
9822;BME280;4950;46.042;14.472;2023-01-08T02:16:41;98145.31;;;8.12;84.62
9822;BME280;4950;46.042;14.472;2023-01-08T02:19:17;98135.16;;;8.10;84.77
9822;BME280;4950;46.042;14.472;2023-01-08T02:21:55;98140.00;;;8.14;84.21
9822;BME280;4950;46.042;14.472;2023-01-08T02:24:38;98142.91;;;8.10;84.25
9822;BME280;4950;46.042;14.472;2023-01-08T02:27:11;98144.97;;;8.07;84.53
9822;BME280;4950;46.042;14.472;2023-01-08T02:29:39;98137.56;;;8.12;84.14
9822;BME280;4950;46.042;14.472;2023-01-08T02:32:06;98142.25;;;8.08;84.40
9822;BME280;4950;46.042;14.472;2023-01-08T02:34:33;98137.34;;;8.05;84.49
9822;BME280;4950;46.042;14.472;2023-01-08T02:37:00;98130.72;;;8.03;84.53
9822;BME280;4950;46.042;14.472;2023-01-08T02:39:45;98137.81;;;8.01;85.21
9822;BME280;4950;46.042;14.472;2023-01-08T02:42:22;98128.94;;;8.03;84.72
9822;BME280;4950;46.042;14.472;2023-01-08T02:44:55;98117.81;;;8.03;84.46
9822;BME280;4950;46.042;14.472;2023-01-08T02:47:28;98117.28;;;7.99;84.74
9822;BME280;4950;46.042;14.472;2023-01-08T02:50:11;98116.78;;;7.96;85.09
9822;BME280;4950;46.042;14.472;2023-01-08T02:52:44;98117.59;;;7.96;84.67
9822;BME280;4950;46.042;14.472;2023-01-08T02:55:14;98124.38;;;7.97;85.09
9822;BME280;4950;46.042;14.472;2023-01-08T02:57:44;98107.38;;;7.95;84.93
9822;BME280;4950;46.042;14.472;2023-01-08T03:00:12;98106.06;;;7.90;85.51
9822;BME280;4950;46.042;14.472;2023-01-08T03:02:40;98105.13;;;7.91;85.57
9822;BME280;4950;46.042;14.472;2023-01-08T03:05:13;98098.63;;;7.87;85.13
9822;BME280;4950;46.042;14.472;2023-01-08T03:07:43;98107.66;;;7.83;85.18
9822;BME280;4950;46.042;14.472;2023-01-08T03:10:11;98103.44;;;7.82;86.22
9822;BME280;4950;46.042;14.472;2023-01-08T03:12:48;98098.88;;;7.76;86.08
9822;BME280;4950;46.042;14.472;2023-01-08T03:15:22;98087.72;;;7.76;85.34
9822;BME280;4950;46.042;14.472;2023-01-08T03:17:51;98087.22;;;7.72;85.63
9822;BME280;4950;46.042;14.472;2023-01-08T03:20:22;98086.41;;;7.71;85.98
9822;BME280;4950;46.042;14.472;2023-01-08T03:22:53;98081.25;;;7.71;85.38
9822;BME280;4950;46.042;14.472;2023-01-08T03:25:22;98088.47;;;7.68;85.41
9822;BME280;4950;46.042;14.472;2023-01-08T03:27:53;98083.31;;;7.68;85.50
9822;BME280;4950;46.042;14.472;2023-01-08T03:30:22;98079.41;;;7.64;85.59
9822;BME280;4950;46.042;14.472;2023-01-08T03:32:50;98078.28;;;7.66;86.09
9822;BME280;4950;46.042;14.472;2023-01-08T03:35:21;98080.22;;;7.64;85.69
9822;BME280;4950;46.042;14.472;2023-01-08T03:37:53;98074.25;;;7.64;85.16
9822;BME280;4950;46.042;14.472;2023-01-08T03:40:24;98073.28;;;7.65;85.60
9822;BME280;4950;46.042;14.472;2023-01-08T03:42:54;98068.41;;;7.62;85.80
9822;BME280;4950;46.042;14.472;2023-01-08T03:45:22;98071.00;;;7.62;85.01
9822;BME280;4950;46.042;14.472;2023-01-08T03:47:49;98063.75;;;7.65;84.76
9822;BME280;4950;46.042;14.472;2023-01-08T03:50:21;98055.31;;;7.63;84.87
9822;BME280;4950;46.042;14.472;2023-01-08T03:52:48;98053.56;;;7.64;84.53
9822;BME280;4950;46.042;14.472;2023-01-08T03:55:15;98039.34;;;7.60;85.15
9822;BME280;4950;46.042;14.472;2023-01-08T03:57:41;98040.16;;;7.60;85.02
9822;BME280;4950;46.042;14.472;2023-01-08T04:00:10;98038.84;;;7.56;85.11
9822;BME280;4950;46.042;14.472;2023-01-08T04:02:37;98029.44;;;7.55;84.63
9822;BME280;4950;46.042;14.472;2023-01-08T04:05:06;98022.81;;;7.53;84.75
9822;BME280;4950;46.042;14.472;2023-01-08T04:07:33;98026.72;;;7.57;84.64
9822;BME280;4950;46.042;14.472;2023-01-08T04:09:59;98030.44;;;7.54;84.91
9822;BME280;4950;46.042;14.472;2023-01-08T04:12:26;98036.69;;;7.51;84.78
9822;BME280;4950;46.042;14.472;2023-01-08T04:14:52;98028.34;;;7.58;84.50
9822;BME280;4950;46.042;14.472;2023-01-08T04:17:20;98030.25;;;7.56;84.69
9822;BME280;4950;46.042;14.472;2023-01-08T04:19:47;98028.50;;;7.56;84.04
9822;BME280;4950;46.042;14.472;2023-01-08T04:22:13;98018.81;;;7.58;84.12
9822;BME280;4950;46.042;14.472;2023-01-08T04:24:40;98026.56;;;7.58;84.52
9822;BME280;4950;46.042;14.472;2023-01-08T04:27:07;98013.19;;;7.63;84.11
9822;BME280;4950;46.042;14.472;2023-01-08T04:29:33;98011.41;;;7.63;83.59
9822;BME280;4950;46.042;14.472;2023-01-08T04:32:00;98006.91;;;7.65;84.10
9822;BME280;4950;46.042;14.472;2023-01-08T04:34:28;98008.69;;;7.65;83.98
9822;BME280;4950;46.042;14.472;2023-01-08T04:36:55;98010.13;;;7.67;83.50
9822;BME280;4950;46.042;14.472;2023-01-08T04:39:21;98009.03;;;7.70;83.78
9822;BME280;4950;46.042;14.472;2023-01-08T04:41:48;98008.25;;;7.69;83.96
9822;BME280;4950;46.042;14.472;2023-01-08T04:44:14;98009.03;;;7.70;83.90
9822;BME280;4950;46.042;14.472;2023-01-08T04:46:41;98010.66;;;7.71;83.56
9822;BME280;4950;46.042;14.472;2023-01-08T04:49:09;98008.72;;;7.73;83.41
9822;BME280;4950;46.042;14.472;2023-01-08T04:51:37;98006.78;;;7.75;83.41
9822;BME280;4950;46.042;14.472;2023-01-08T04:54:03;98012.47;;;7.79;82.84
9822;BME280;4950;46.042;14.472;2023-01-08T04:56:30;98011.38;;;7.81;82.44
9822;BME280;4950;46.042;14.472;2023-01-08T04:58:57;98003.44;;;7.83;82.32
9822;BME280;4950;46.042;14.472;2023-01-08T05:01:25;98011.06;;;7.84;83.04
9822;BME280;4950;46.042;14.472;2023-01-08T05:03:53;98011.56;;;7.88;82.65
9822;BME280;4950;46.042;14.472;2023-01-08T05:06:20;98005.75;;;7.86;81.95
9822;BME280;4950;46.042;14.472;2023-01-08T05:08:48;98008.69;;;7.91;81.93
9822;BME280;4950;46.042;14.472;2023-01-08T05:11:15;98006.75;;;7.93;82.12
9822;BME280;4950;46.042;14.472;2023-01-08T05:13:42;98011.75;;;7.95;81.76
9822;BME280;4950;46.042;14.472;2023-01-08T05:16:08;98011.75;;;7.95;81.77
9822;BME280;4950;46.042;14.472;2023-01-08T05:18:35;98000.16;;;7.99;81.30
9822;BME280;4950;46.042;14.472;2023-01-08T05:21:02;98002.75;;;7.99;81.06
9822;BME280;4950;46.042;14.472;2023-01-08T05:23:30;98006.63;;;8.03;80.98
9822;BME280;4950;46.042;14.472;2023-01-08T05:25:59;98008.91;;;8.06;81.04
9822;BME280;4950;46.042;14.472;2023-01-08T05:28:26;98013.25;;;8.05;81.17
9822;BME280;4950;46.042;14.472;2023-01-08T05:30:53;98000.34;;;8.05;81.02
9822;BME280;4950;46.042;14.472;2023-01-08T05:33:20;98007.47;;;8.11;80.73
9822;BME280;4950;46.042;14.472;2023-01-08T05:35:47;98012.66;;;8.11;80.82
9822;BME280;4950;46.042;14.472;2023-01-08T05:38:14;98010.06;;;8.11;80.47
9822;BME280;4950;46.042;14.472;2023-01-08T05:40:41;98002.81;;;8.15;80.53
9822;BME280;4950;46.042;14.472;2023-01-08T05:43:09;98009.59;;;8.16;80.23
9822;BME280;4950;46.042;14.472;2023-01-08T05:45:35;98002.47;;;8.18;79.78
9822;BME280;4950;46.042;14.472;2023-01-08T05:48:04;98008.47;;;8.19;80.40
9822;BME280;4950;46.042;14.472;2023-01-08T05:50:31;98003.16;;;8.20;80.00
9822;BME280;4950;46.042;14.472;2023-01-08T05:52:58;98004.75;;;8.21;80.66
9822;BME280;4950;46.042;14.472;2023-01-08T05:55:24;98003.81;;;8.22;80.22
9822;BME280;4950;46.042;14.472;2023-01-08T05:57:51;97995.88;;;8.24;80.48
9822;BME280;4950;46.042;14.472;2023-01-08T06:00:19;97993.00;;;8.27;80.56
9822;BME280;4950;46.042;14.472;2023-01-08T06:02:46;97991.22;;;8.27;80.63
9822;BME280;4950;46.042;14.472;2023-01-08T06:05:13;97986.69;;;8.29;80.60
9822;BME280;4950;46.042;14.472;2023-01-08T06:07:40;97986.69;;;8.29;80.74
9822;BME280;4950;46.042;14.472;2023-01-08T06:10:07;97984.25;;;8.28;80.73
9822;BME280;4950;46.042;14.472;2023-01-08T06:12:34;97982.50;;;8.28;80.55
9822;BME280;4950;46.042;14.472;2023-01-08T06:15:00;97993.78;;;8.27;80.75
9822;BME280;4950;46.042;14.472;2023-01-08T06:17:28;97985.38;;;8.25;80.38
9822;BME280;4950;46.042;14.472;2023-01-08T06:19:55;97985.53;;;8.24;81.00
9822;BME280;4950;46.042;14.472;2023-01-08T06:22:21;97979.56;;;8.23;81.19
9822;BME280;4950;46.042;14.472;2023-01-08T06:24:48;97967.63;;;8.22;80.72
9822;BME280;4950;46.042;14.472;2023-01-08T06:27:14;97974.25;;;8.25;80.69
9822;BME280;4950;46.042;14.472;2023-01-08T06:29:41;97978.59;;;8.24;81.09
9822;BME280;4950;46.042;14.472;2023-01-08T06:32:08;97969.88;;;8.25;80.83
9822;BME280;4950;46.042;14.472;2023-01-08T06:34:36;97966.47;;;8.25;80.62
9822;BME280;4950;46.042;14.472;2023-01-08T06:37:02;97975.19;;;8.24;80.52
9822;BME280;4950;46.042;14.472;2023-01-08T06:39:29;97971.66;;;8.25;80.48
9822;BME280;4950;46.042;14.472;2023-01-08T06:41:55;97968.25;;;8.24;80.38
9822;BME280;4950;46.042;14.472;2023-01-08T06:44:22;97968.25;;;8.24;80.34
9822;BME280;4950;46.042;14.472;2023-01-08T06:46:49;97959.38;;;8.27;80.32
9822;BME280;4950;46.042;14.472;2023-01-08T06:49:16;97967.28;;;8.25;80.04
9822;BME280;4950;46.042;14.472;2023-01-08T06:51:45;97971.31;;;8.28;80.58
9822;BME280;4950;46.042;14.472;2023-01-08T06:54:11;97969.56;;;8.28;80.81
9822;BME280;4950;46.042;14.472;2023-01-08T06:56:38;97976.34;;;8.29;80.03
9822;BME280;4950;46.042;14.472;2023-01-08T06:59:05;97965.84;;;8.31;80.59
9822;BME280;4950;46.042;14.472;2023-01-08T07:01:31;97974.41;;;8.31;80.44
9822;BME280;4950;46.042;14.472;2023-01-08T07:03:58;97967.47;;;8.32;79.88
9822;BME280;4950;46.042;14.472;2023-01-08T07:06:24;97969.09;;;8.33;80.42
9822;BME280;4950;46.042;14.472;2023-01-08T07:08:52;97980.06;;;8.35;80.15
9822;BME280;4950;46.042;14.472;2023-01-08T07:11:19;97981.72;;;8.36;80.25
9822;BME280;4950;46.042;14.472;2023-01-08T07:13:46;97973.94;;;8.36;80.18
9822;BME280;4950;46.042;14.472;2023-01-08T07:16:13;97968.78;;;8.36;80.64
9822;BME280;4950;46.042;14.472;2023-01-08T07:18:39;97982.38;;;8.38;80.21
9822;BME280;4950;46.042;14.472;2023-01-08T07:21:07;97978.66;;;8.41;80.72
9822;BME280;4950;46.042;14.472;2023-01-08T07:23:34;97973.63;;;8.39;80.50
9822;BME280;4950;46.042;14.472;2023-01-08T07:26:03;97971.19;;;8.38;80.58
9822;BME280;4950;46.042;14.472;2023-01-08T07:28:30;97976.22;;;8.39;80.55
9822;BME280;4950;46.042;14.472;2023-01-08T07:30:56;97971.88;;;8.40;80.82
9822;BME280;4950;46.042;14.472;2023-01-08T07:33:23;97969.97;;;8.42;81.12
9822;BME280;4950;46.042;14.472;2023-01-08T07:35:53;97972.66;;;8.40;81.34
9822;BME280;4950;46.042;14.472;2023-01-08T07:38:20;97971.88;;;8.40;81.73
9822;BME280;4950;46.042;14.472;2023-01-08T07:40:47;97966.53;;;8.41;81.26
9822;BME280;4950;46.042;14.472;2023-01-08T07:43:15;97962.66;;;8.45;81.22
9822;BME280;4950;46.042;14.472;2023-01-08T07:45:42;97967.84;;;8.45;81.33
9822;BME280;4950;46.042;14.472;2023-01-08T07:48:09;97948.78;;;8.46;81.39
9822;BME280;4950;46.042;14.472;2023-01-08T07:50:40;97946.84;;;8.48;81.59
9822;BME280;4950;46.042;14.472;2023-01-08T07:53:06;97960.56;;;8.49;81.53
9822;BME280;4950;46.042;14.472;2023-01-08T07:55:33;97963.16;;;8.49;81.76
9822;BME280;4950;46.042;14.472;2023-01-08T07:57:59;97948.78;;;8.46;82.28
9822;BME280;4950;46.042;14.472;2023-01-08T08:00:27;97950.38;;;8.47;82.03
9822;BME280;4950;46.042;14.472;2023-01-08T08:02:54;97949.59;;;8.47;82.53
9822;BME280;4950;46.042;14.472;2023-01-08T08:05:20;97947.16;;;8.45;82.90
9822;BME280;4950;46.042;14.472;2023-01-08T08:07:47;97943.75;;;8.45;83.42
9822;BME280;4950;46.042;14.472;2023-01-08T08:10:14;97943.56;;;8.38;83.78
9822;BME280;4950;46.042;14.472;2023-01-08T08:12:43;97931.44;;;8.39;83.70
9822;BME280;4950;46.042;14.472;2023-01-08T08:15:10;97946.94;;;8.39;83.93
9822;BME280;4950;46.042;14.472;2023-01-08T08:17:38;97949.53;;;8.39;84.02
9822;BME280;4950;46.042;14.472;2023-01-08T08:20:05;97947.09;;;8.37;84.40
9822;BME280;4950;46.042;14.472;2023-01-08T08:22:32;97947.09;;;8.37;83.92
9822;BME280;4950;46.042;14.472;2023-01-08T08:24:59;97950.19;;;8.41;84.66
9822;BME280;4950;46.042;14.472;2023-01-08T08:27:25;97938.25;;;8.40;84.54
9822;BME280;4950;46.042;14.472;2023-01-08T08:29:52;97933.22;;;8.38;84.01
9822;BME280;4950;46.042;14.472;2023-01-08T08:32:18;97949.53;;;8.39;83.92
9822;BME280;4950;46.042;14.472;2023-01-08T08:34:46;97941.13;;;8.37;83.78
9822;BME280;4950;46.042;14.472;2023-01-08T08:37:14;97934.03;;;8.39;83.76
9822;BME280;4950;46.042;14.472;2023-01-08T08:39:41;97934.03;;;8.39;84.32
9822;BME280;4950;46.042;14.472;2023-01-08T08:42:08;97932.91;;;8.41;84.55
9822;BME280;4950;46.042;14.472;2023-01-08T08:44:34;97937.41;;;8.39;85.37
9822;BME280;4950;46.042;14.472;2023-01-08T08:47:01;97926.25;;;8.39;84.50
9822;BME280;4950;46.042;14.472;2023-01-08T08:49:27;97931.44;;;8.39;84.63
9822;BME280;4950;46.042;14.472;2023-01-08T08:51:55;97939.03;;;8.40;84.73
9822;BME280;4950;46.042;14.472;2023-01-08T08:54:22;97928.56;;;8.42;85.09
9822;BME280;4950;46.042;14.472;2023-01-08T08:56:48;97931.47;;;8.47;84.12
9822;BME280;4950;46.042;14.472;2023-01-08T08:59:15;97937.63;;;8.46;84.52
9822;BME280;4950;46.042;14.472;2023-01-08T09:01:41;97939.72;;;8.42;85.03
9822;BME280;4950;46.042;14.472;2023-01-08T09:04:08;97937.63;;;8.46;85.10
9822;BME280;4950;46.042;14.472;2023-01-08T09:06:35;97939.22;;;8.47;85.11
9822;BME280;4950;46.042;14.472;2023-01-08T09:09:03;97940.03;;;8.47;85.00
9822;BME280;4950;46.042;14.472;2023-01-08T09:11:30;97938.59;;;8.45;84.85
9822;BME280;4950;46.042;14.472;2023-01-08T09:13:56;97930.53;;;8.48;85.05
9822;BME280;4950;46.042;14.472;2023-01-08T09:16:23;97940.88;;;8.48;85.54
9822;BME280;4950;46.042;14.472;2023-01-08T09:18:49;97933.09;;;8.48;86.27
9822;BME280;4950;46.042;14.472;2023-01-08T09:21:16;97935.69;;;8.48;86.33
9822;BME280;4950;46.042;14.472;2023-01-08T09:23:42;97932.63;;;8.53;86.29
9822;BME280;4950;46.042;14.472;2023-01-08T09:26:10;97936.66;;;8.55;86.60
9822;BME280;4950;46.042;14.472;2023-01-08T09:28:37;97945.75;;;8.59;86.04
9822;BME280;4950;46.042;14.472;2023-01-08T09:31:04;97940.38;;;8.61;86.37
9822;BME280;4950;46.042;14.472;2023-01-08T09:33:31;97938.28;;;8.64;85.71
9822;BME280;4950;46.042;14.472;2023-01-08T09:35:57;97931.31;;;8.65;86.44
9822;BME280;4950;46.042;14.472;2023-01-08T09:38:24;97930.38;;;8.66;86.39
9822;BME280;4950;46.042;14.472;2023-01-08T09:40:54;97930.22;;;8.67;86.80
9822;BME280;4950;46.042;14.472;2023-01-08T09:43:25;97926.66;;;8.68;86.83
9822;BME280;4950;46.042;14.472;2023-01-08T09:45:55;97926.66;;;8.68;86.94
9822;BME280;4950;46.042;14.472;2023-01-08T09:48:26;97910.81;;;8.72;86.95
9822;BME280;4950;46.042;14.472;2023-01-08T09:50:53;97892.84;;;8.78;86.44
9822;BME280;4950;46.042;14.472;2023-01-08T09:53:20;97886.69;;;8.87;86.63
9822;BME280;4950;46.042;14.472;2023-01-08T09:55:53;97896.88;;;9.05;86.74
9822;BME280;4950;46.042;14.472;2023-01-08T09:58:27;97883.22;;;9.36;85.71
9822;BME280;4950;46.042;14.472;2023-01-08T10:00:56;97876.03;;;9.63;83.43
9822;BME280;4950;46.042;14.472;2023-01-08T10:03:28;97874.56;;;9.92;82.85
9822;BME280;4950;46.042;14.472;2023-01-08T10:05:55;97860.31;;;10.19;81.46
9822;BME280;4950;46.042;14.472;2023-01-08T10:08:22;97858.22;;;10.45;80.04
9822;BME280;4950;46.042;14.472;2023-01-08T10:10:48;97850.72;;;10.89;76.20
9822;BME280;4950;46.042;14.472;2023-01-08T10:13:15;97858.44;;;10.97;76.18
9822;BME280;4950;46.042;14.472;2023-01-08T10:15:43;97854.00;;;11.05;75.56
9822;BME280;4950;46.042;14.472;2023-01-08T10:18:11;97863.03;;;11.10;74.80
9822;BME280;4950;46.042;14.472;2023-01-08T10:20:39;97866.41;;;10.95;74.41
9822;BME280;4950;46.042;14.472;2023-01-08T10:23:11;97857.09;;;10.86;75.36
9822;BME280;4950;46.042;14.472;2023-01-08T10:25:59;97848.94;;;10.89;75.70
9822;BME280;4950;46.042;14.472;2023-01-08T10:28:28;97837.91;;;10.87;76.10
9822;BME280;4950;46.042;14.472;2023-01-08T10:31:04;97833.72;;;10.86;76.27
9822;BME280;4950;46.042;14.472;2023-01-08T10:33:38;97841.06;;;10.82;75.50
9822;BME280;4950;46.042;14.472;2023-01-08T10:36:08;97833.91;;;10.84;76.17
9822;BME280;4950;46.042;14.472;2023-01-08T10:38:38;97828.94;;;10.75;76.20
9822;BME280;4950;46.042;14.472;2023-01-08T10:41:10;97833.69;;;10.71;77.92
9822;BME280;4950;46.042;14.472;2023-01-08T10:43:44;97832.06;;;10.70;77.41
9822;BME280;4950;46.042;14.472;2023-01-08T10:46:21;97824.00;;;10.65;78.32
9822;BME280;4950;46.042;14.472;2023-01-08T10:48:50;97823.75;;;10.75;78.26
9822;BME280;4950;46.042;14.472;2023-01-08T10:51:21;97823.75;;;10.75;78.25
9822;BME280;4950;46.042;14.472;2023-01-08T10:53:49;97814.13;;;10.60;79.18
9822;BME280;4950;46.042;14.472;2023-01-08T10:56:19;97803.03;;;10.52;79.13
9822;BME280;4950;46.042;14.472;2023-01-08T10:58:47;97800.44;;;10.52;79.16
9822;BME280;4950;46.042;14.472;2023-01-08T11:01:19;97788.09;;;10.54;79.50
9822;BME280;4950;46.042;14.472;2023-01-08T11:03:49;97787.91;;;10.55;79.59
9822;BME280;4950;46.042;14.472;2023-01-08T11:06:20;97789.72;;;10.55;79.54
9822;BME280;4950;46.042;14.472;2023-01-08T11:08:49;97779.44;;;10.76;82.54
9822;BME280;4950;46.042;14.472;2023-01-08T11:11:17;97785.72;;;10.82;80.07
9822;BME280;4950;46.042;14.472;2023-01-08T11:13:53;97775.94;;;10.69;79.31
9822;BME280;4950;46.042;14.472;2023-01-08T11:16:29;97776.53;;;10.56;80.06
9822;BME280;4950;46.042;14.472;2023-01-08T11:18:56;97782.91;;;10.54;80.06
9822;BME280;4950;46.042;14.472;2023-01-08T11:21:26;97760.69;;;10.51;80.65
9822;BME280;4950;46.042;14.472;2023-01-08T11:24:10;97759.97;;;10.42;81.06
9822;BME280;4950;46.042;14.472;2023-01-08T11:26:45;97758.63;;;10.46;81.55
9822;BME280;4950;46.042;14.472;2023-01-08T11:29:15;97751.28;;;10.50;81.40
9822;BME280;4950;46.042;14.472;2023-01-08T11:31:49;97746.72;;;10.52;81.38
9822;BME280;4950;46.042;14.472;2023-01-08T11:34:37;97741.38;;;10.54;81.41
9822;BME280;4950;46.042;14.472;2023-01-08T11:37:11;97734.56;;;10.53;81.54
9822;BME280;4950;46.042;14.472;2023-01-08T11:39:40;97738.22;;;10.58;81.54
9822;BME280;4950;46.042;14.472;2023-01-08T11:42:24;97728.94;;;10.79;81.39
9822;BME280;4950;46.042;14.472;2023-01-08T11:45:06;97729.47;;;11.04;80.18
9822;BME280;4950;46.042;14.472;2023-01-08T11:47:50;97727.91;;;11.24;79.02
9822;BME280;4950;46.042;14.472;2023-01-08T11:50:26;97720.84;;;11.33;78.28
9822;BME280;4950;46.042;14.472;2023-01-08T11:53:08;97723.03;;;11.36;77.72
9822;BME280;4950;46.042;14.472;2023-01-08T11:55:44;97711.50;;;11.39;77.55
9822;BME280;4950;46.042;14.472;2023-01-08T11:58:20;97715.69;;;11.40;76.89
9822;BME280;4950;46.042;14.472;2023-01-08T12:01:02;97725.59;;;11.30;77.60
9822;BME280;4950;46.042;14.472;2023-01-08T12:03:35;97706.88;;;11.19;77.79
9822;BME280;4950;46.042;14.472;2023-01-08T12:06:15;97708.84;;;11.17;77.66
9822;BME280;4950;46.042;14.472;2023-01-08T12:08:51;97707.50;;;11.21;77.91
9822;BME280;4950;46.042;14.472;2023-01-08T12:11:24;97699.25;;;11.18;77.89
9822;BME280;4950;46.042;14.472;2023-01-08T12:14:12;97692.16;;;11.26;77.84
9822;BME280;4950;46.042;14.472;2023-01-08T12:16:54;97696.00;;;11.31;76.46
9822;BME280;4950;46.042;14.472;2023-01-08T12:19:36;97688.84;;;11.33;76.53
9822;BME280;4950;46.042;14.472;2023-01-08T12:22:20;97698.25;;;11.34;76.44
9822;BME280;4950;46.042;14.472;2023-01-08T12:28:00;97694.84;;;11.33;76.69
9822;BME280;4950;46.042;14.472;2023-01-08T12:30:37;97687.16;;;11.25;76.76
9822;BME280;4950;46.042;14.472;2023-01-08T12:33:09;97686.53;;;11.23;76.76
9822;BME280;4950;46.042;14.472;2023-01-08T12:35:43;97689.13;;;11.23;77.06
9822;BME280;4950;46.042;14.472;2023-01-08T12:38:14;97693.06;;;11.19;76.86
9822;BME280;4950;46.042;14.472;2023-01-08T12:40:47;97692.44;;;11.17;77.44
9822;BME280;4950;46.042;14.472;2023-01-08T12:43:18;97682.34;;;11.07;77.48
9822;BME280;4950;46.042;14.472;2023-01-08T12:45:50;97685.94;;;11.06;78.22
9822;BME280;4950;46.042;14.472;2023-01-08T12:48:20;97693.28;;;11.02;78.11
9822;BME280;4950;46.042;14.472;2023-01-08T12:50:55;97692.59;;;10.94;78.56
9822;BME280;4950;46.042;14.472;2023-01-08T12:53:29;97690.06;;;10.85;79.41
9822;BME280;4950;46.042;14.472;2023-01-08T12:56:05;97689.28;;;10.85;79.60
9822;BME280;4950;46.042;14.472;2023-01-08T12:58:47;97689.38;;;10.77;80.20
9822;BME280;4950;46.042;14.472;2023-01-08T13:01:27;97684.53;;;10.74;80.95
9822;BME280;4950;46.042;14.472;2023-01-08T13:03:57;97685.78;;;10.78;81.73
9822;BME280;4950;46.042;14.472;2023-01-08T13:06:26;97677.91;;;10.71;82.36
9822;BME280;4950;46.042;14.472;2023-01-08T13:08:54;97666.91;;;10.69;82.59
9822;BME280;4950;46.042;14.472;2023-01-08T13:11:27;97672.09;;;10.69;83.00
9822;BME280;4950;46.042;14.472;2023-01-08T13:13:59;97662.69;;;10.68;83.30
9822;BME280;4950;46.042;14.472;2023-01-08T13:16:27;97666.44;;;10.65;83.79
9822;BME280;4950;46.042;14.472;2023-01-08T13:18:57;97677.22;;;10.62;83.82
9822;BME280;4950;46.042;14.472;2023-01-08T13:21:34;97676.84;;;10.65;84.57
9822;BME280;4950;46.042;14.472;2023-01-08T13:24:04;97675.41;;;10.63;84.50
9822;BME280;4950;46.042;14.472;2023-01-08T13:26:33;97671.38;;;10.60;84.91
9822;BME280;4950;46.042;14.472;2023-01-08T13:29:22;97673.34;;;10.58;84.76
9822;BME280;4950;46.042;14.472;2023-01-08T13:31:49;97669.88;;;10.51;85.25
9822;BME280;4950;46.042;14.472;2023-01-08T13:34:18;97661.09;;;10.52;84.93